createdAt,value
2022-11-27T00:00:47.561Z,6.16
2022-11-27T00:01:47.532Z,6.11
2022-11-27T00:02:47.628Z,6.19
2022-11-27T00:03:47.511Z,6.13
2022-11-27T00:04:47.384Z,6.20
2022-11-27T00:05:47.343Z,6.14
2022-11-27T00:06:47.306Z,6.21
2022-11-27T00:07:47.316Z,6.17
2022-11-27T00:08:47.209Z,6.14
2022-11-27T00:09:47.165Z,6.24
2022-11-27T00:10:47.120Z,6.16
2022-11-27T00:11:47.083Z,6.16
2022-11-27T00:12:47.114Z,6.25
2022-11-27T00:13:46.993Z,6.19
2022-11-27T00:14:46.955Z,6.20
2022-11-27T00:15:46.963Z,6.25
2022-11-27T00:16:46.856Z,6.16
2022-11-27T00:17:46.814Z,6.24
2022-11-27T00:18:46.768Z,6.06
2022-11-27T00:19:46.738Z,6.20
2022-11-27T00:20:46.680Z,6.17
2022-11-27T00:21:46.636Z,6.16
2022-11-27T00:22:46.589Z,6.14
2022-11-27T00:23:46.548Z,6.19
2022-11-27T00:24:46.513Z,6.19
2022-11-27T00:25:46.464Z,6.11
2022-11-27T00:26:46.415Z,6.17
2022-11-27T00:27:46.373Z,6.10
2022-11-27T00:28:46.329Z,6.14
2022-11-27T00:29:46.314Z,6.14
2022-11-27T00:30:46.260Z,6.13
2022-11-27T00:31:46.255Z,6.13
2022-11-27T00:32:46.151Z,6.17
2022-11-27T00:33:46.107Z,6.16
2022-11-27T00:34:46.064Z,6.17
2022-11-27T00:35:46.033Z,6.17
2022-11-27T00:36:48.248Z,6.14
2022-11-27T00:37:45.933Z,6.17
2022-11-27T00:38:45.886Z,6.10
2022-11-27T00:39:45.866Z,6.19
2022-11-27T00:40:45.799Z,6.21
2022-11-27T00:41:45.756Z,6.33
2022-11-27T00:42:45.721Z,6.27
2022-11-27T00:43:45.784Z,6.38
2022-11-27T00:44:45.623Z,6.21
2022-11-27T00:45:45.580Z,6.32
2022-11-27T00:46:45.694Z,6.30
2022-11-27T00:47:45.508Z,6.25
2022-11-27T00:48:45.464Z,6.24
2022-11-27T00:49:45.403Z,6.16
2022-11-27T00:50:45.357Z,6.20
2022-11-27T00:51:45.315Z,6.19
2022-11-27T00:52:45.268Z,6.03
2022-11-27T00:53:45.239Z,6.13
2022-11-27T00:54:45.181Z,6.20
2022-11-27T00:55:45.141Z,6.14
2022-11-27T00:56:45.094Z,6.17
2022-11-27T00:57:45.054Z,6.13
2022-11-27T00:58:45.006Z,6.16
2022-11-27T00:59:44.972Z,6.16
2022-11-27T01:00:44.916Z,6.11
2022-11-27T01:01:44.962Z,6.21
2022-11-27T01:02:44.865Z,6.16
2022-11-27T01:03:44.785Z,6.13
2022-11-27T01:04:44.757Z,6.20
2022-11-27T01:05:44.697Z,6.11
2022-11-27T01:06:44.651Z,6.16
2022-11-27T01:07:44.635Z,6.11
2022-11-27T01:08:44.568Z,6.03
2022-11-27T01:09:44.521Z,6.06
2022-11-27T01:10:44.484Z,6.05
2022-11-27T01:11:44.445Z,6.11
2022-11-27T01:12:44.390Z,6.05
2022-11-27T01:13:44.346Z,6.05
2022-11-27T01:14:44.300Z,6.20
2022-11-27T01:15:44.299Z,6.20
2022-11-27T01:16:44.266Z,6.19
2022-11-27T01:17:44.171Z,6.16
2022-11-27T01:18:44.125Z,6.24
2022-11-27T01:19:44.083Z,6.21
2022-11-27T01:20:44.033Z,6.10
2022-11-27T01:21:52.698Z,6.13
2022-11-27T01:22:43.948Z,6.16
2022-11-27T01:23:43.903Z,6.11
2022-11-27T01:24:43.859Z,6.17
2022-11-27T01:25:43.817Z,6.14
2022-11-27T01:26:43.773Z,6.10
2022-11-27T01:27:43.738Z,6.19
2022-11-27T01:28:43.685Z,6.21
2022-11-27T01:29:43.638Z,6.14
2022-11-27T01:30:43.594Z,6.19
2022-11-27T01:31:43.549Z,6.14
2022-11-27T01:32:43.552Z,6.17
2022-11-27T01:33:43.475Z,6.08
2022-11-27T01:34:43.422Z,6.08
2022-11-27T01:35:43.374Z,6.10
2022-11-27T01:36:43.330Z,6.08
2022-11-27T01:37:43.281Z,6.06
2022-11-27T01:38:43.239Z,6.10
2022-11-27T01:39:43.206Z,6.05
2022-11-27T01:40:43.160Z,6.10
2022-11-27T01:41:43.109Z,6.11
2022-11-27T01:42:43.066Z,6.13
2022-11-27T01:43:43.027Z,6.16
2022-11-27T01:44:42.986Z,6.08
2022-11-27T01:45:42.930Z,6.14
2022-11-27T01:46:42.986Z,6.01
2022-11-27T01:47:42.844Z,6.08
2022-11-27T01:48:42.802Z,6.13
2022-11-27T01:49:42.773Z,6.14
2022-11-27T01:50:42.712Z,6.06
2022-11-27T01:51:42.666Z,5.99
2022-11-27T01:52:42.625Z,6.11
2022-11-27T01:53:42.575Z,6.08
2022-11-27T01:54:42.852Z,6.06
2022-11-27T01:55:42.496Z,6.02
2022-11-27T01:56:42.447Z,5.99
2022-11-27T01:57:42.406Z,6.08
2022-11-27T01:58:42.358Z,6.13
2022-11-27T01:59:42.315Z,6.05
2022-11-27T02:00:42.284Z,5.99
2022-11-27T02:01:42.307Z,6.03
2022-11-27T02:02:42.264Z,5.99
2022-11-27T02:03:42.136Z,6.03
2022-11-27T02:04:42.375Z,6.02
2022-11-27T02:05:42.057Z,5.96
2022-11-27T02:06:42.004Z,6.02
2022-11-27T02:07:42.015Z,6.03
2022-11-27T02:08:41.917Z,6.08
2022-11-27T02:09:41.869Z,6.08
2022-11-27T02:10:41.827Z,6.01
2022-11-27T02:11:41.780Z,5.93
2022-11-27T02:12:41.745Z,5.93
2022-11-27T02:13:41.705Z,6.01
2022-11-27T02:14:42.059Z,5.96
2022-11-27T02:15:41.641Z,5.92
2022-11-27T02:16:41.633Z,6.02
2022-11-27T02:17:41.526Z,6.01
2022-11-27T02:18:41.494Z,5.93
2022-11-27T02:19:41.428Z,6.10
2022-11-27T02:20:41.385Z,6.05
2022-11-27T02:21:41.344Z,6.06
2022-11-27T02:22:41.295Z,5.99
2022-11-27T02:23:41.261Z,6.05
2022-11-27T02:24:41.437Z,5.95
2022-11-27T02:25:41.161Z,5.95
2022-11-27T02:26:41.130Z,5.99
2022-11-27T02:27:41.073Z,6.03
2022-11-27T02:28:41.046Z,5.95
2022-11-27T02:29:40.986Z,5.98
2022-11-27T02:30:40.943Z,5.98
2022-11-27T02:31:40.930Z,5.88
2022-11-27T02:32:40.871Z,5.98
2022-11-27T02:33:40.807Z,5.99
2022-11-27T02:34:41.085Z,5.96
2022-11-27T02:35:40.720Z,5.99
2022-11-27T02:36:40.679Z,5.84
2022-11-27T02:37:40.638Z,5.87
2022-11-27T02:38:40.589Z,5.96
2022-11-27T02:39:40.551Z,5.84
2022-11-27T02:40:40.516Z,5.92
2022-11-27T02:41:40.456Z,5.90
2022-11-27T02:42:40.495Z,5.85
2022-11-27T02:43:40.370Z,5.77
2022-11-27T02:44:40.387Z,5.78
2022-11-27T02:45:40.278Z,5.70
2022-11-27T02:46:40.302Z,5.74
2022-11-27T02:47:40.188Z,5.83
2022-11-27T02:48:40.149Z,5.69
2022-11-27T02:49:40.106Z,5.78
2022-11-27T02:50:40.067Z,5.77
2022-11-27T02:51:40.012Z,5.81
2022-11-27T02:52:39.972Z,5.78
2022-11-27T02:53:39.922Z,5.75
2022-11-27T02:54:40.082Z,5.69
2022-11-27T02:55:39.847Z,5.69
2022-11-27T02:56:39.796Z,5.73
2022-11-27T02:57:39.743Z,5.62
2022-11-27T02:58:39.781Z,5.62
2022-11-27T02:59:39.659Z,5.66
2022-11-27T03:00:39.633Z,5.63
2022-11-27T03:01:39.635Z,5.60
2022-11-27T03:02:39.572Z,5.62
2022-11-27T03:03:39.482Z,5.66
2022-11-27T03:04:39.711Z,5.73
2022-11-27T03:05:39.404Z,5.51
2022-11-27T03:06:39.349Z,5.56
2022-11-27T03:07:39.355Z,5.56
2022-11-27T03:08:39.271Z,5.52
2022-11-27T03:09:39.218Z,5.51
2022-11-27T03:10:39.710Z,5.49
2022-11-27T03:11:39.125Z,5.52
2022-11-27T03:12:39.084Z,5.59
2022-11-27T03:13:39.048Z,5.49
2022-11-27T03:14:39.405Z,5.51
2022-11-27T03:15:38.996Z,5.59
2022-11-27T03:16:38.908Z,5.49
2022-11-27T03:17:38.858Z,5.52
2022-11-27T03:18:38.831Z,5.42
2022-11-27T03:19:38.769Z,5.47
2022-11-27T03:20:38.731Z,5.60
2022-11-27T03:21:38.681Z,5.51
2022-11-27T03:22:38.637Z,5.59
2022-11-27T03:23:38.605Z,5.55
2022-11-27T03:24:38.880Z,5.62
2022-11-27T03:25:38.501Z,5.55
2022-11-27T03:26:38.460Z,5.45
2022-11-27T03:27:38.411Z,5.44
2022-11-27T03:28:38.371Z,5.49
2022-11-27T03:29:38.338Z,5.60
2022-11-27T03:30:38.364Z,5.58
2022-11-27T03:31:38.305Z,5.48
2022-11-27T03:32:38.197Z,5.51
2022-11-27T03:33:38.144Z,5.48
2022-11-27T03:34:38.306Z,5.49
2022-11-27T03:35:38.056Z,5.42
2022-11-27T03:36:38.020Z,5.45
2022-11-27T03:37:37.967Z,5.41
2022-11-27T03:38:37.926Z,5.48
2022-11-27T03:39:37.890Z,5.40
2022-11-27T03:40:37.855Z,5.44
2022-11-27T03:41:37.790Z,5.45
2022-11-27T03:42:37.749Z,5.42
2022-11-27T03:43:37.706Z,5.51
2022-11-27T03:44:37.750Z,5.47
2022-11-27T03:45:37.611Z,5.44
2022-11-27T03:46:37.784Z,5.44
2022-11-27T03:47:37.551Z,5.60
2022-11-27T03:48:37.481Z,5.51
2022-11-27T03:49:37.433Z,5.56
2022-11-27T03:50:37.395Z,5.60
2022-11-27T03:51:37.346Z,5.56
2022-11-27T03:52:37.315Z,5.62
2022-11-27T03:53:37.256Z,5.58
2022-11-27T03:54:37.431Z,5.59
2022-11-27T03:55:37.185Z,5.56
2022-11-27T03:56:37.128Z,5.44
2022-11-27T03:57:37.079Z,5.45
2022-11-27T03:58:37.037Z,5.52
2022-11-27T03:59:36.989Z,5.58
2022-11-27T04:00:36.946Z,5.55
2022-11-27T04:01:36.976Z,5.51
2022-11-27T04:02:36.939Z,5.49
2022-11-27T04:03:36.914Z,5.51
2022-11-27T04:04:36.773Z,5.62
2022-11-27T04:05:36.724Z,5.63
2022-11-27T04:06:36.697Z,5.75
2022-11-27T04:07:36.728Z,5.69
2022-11-27T04:08:36.593Z,5.67
2022-11-27T04:09:36.545Z,5.59
2022-11-27T04:10:36.505Z,5.65
2022-11-27T04:11:36.508Z,5.63
2022-11-27T04:12:36.416Z,5.59
2022-11-27T04:13:36.369Z,5.65
2022-11-27T04:14:36.327Z,5.77
2022-11-27T04:15:36.281Z,5.63
2022-11-27T04:16:36.280Z,5.55
2022-11-27T04:17:36.204Z,5.49
2022-11-27T04:18:36.229Z,5.65
2022-11-27T04:19:36.114Z,5.59
2022-11-27T04:20:36.071Z,5.58
2022-11-27T04:21:36.012Z,5.62
2022-11-27T04:22:35.970Z,5.66
2022-11-27T04:23:36.249Z,5.60
2022-11-27T04:24:35.895Z,5.73
2022-11-27T04:25:35.839Z,5.69
2022-11-27T04:26:35.793Z,5.65
2022-11-27T04:27:35.747Z,5.74
2022-11-27T04:28:35.719Z,5.69
2022-11-27T04:29:35.658Z,5.75
2022-11-27T04:30:35.618Z,5.80
2022-11-27T04:31:35.618Z,5.78
2022-11-27T04:32:35.535Z,5.74
2022-11-27T04:33:35.485Z,5.75
2022-11-27T04:34:35.531Z,5.65
2022-11-27T04:35:35.396Z,5.81
2022-11-27T04:36:39.179Z,5.70
2022-11-27T04:37:35.310Z,5.80
2022-11-27T04:38:35.266Z,5.73
2022-11-27T04:39:35.219Z,5.69
2022-11-27T04:40:35.198Z,5.77
2022-11-27T04:41:35.129Z,5.77
2022-11-27T04:42:36.156Z,5.67
2022-11-27T04:43:35.040Z,5.69
2022-11-27T04:44:34.998Z,5.73
2022-11-27T04:45:34.962Z,5.67
2022-11-27T04:46:34.944Z,5.73
2022-11-27T04:47:34.862Z,5.69
2022-11-27T04:48:34.826Z,5.80
2022-11-27T04:49:34.770Z,5.87
2022-11-27T04:50:34.813Z,5.88
2022-11-27T04:51:34.695Z,5.84
2022-11-27T04:52:34.645Z,5.81
2022-11-27T04:53:34.731Z,5.78
2022-11-27T04:54:34.556Z,5.83
2022-11-27T04:55:34.507Z,5.92
2022-11-27T04:56:35.237Z,5.85
2022-11-27T04:57:35.237Z,5.93
2022-11-27T04:58:34.384Z,5.92
2022-11-27T04:59:34.332Z,5.87
2022-11-27T05:00:34.341Z,5.85
2022-11-27T05:01:34.241Z,5.84
2022-11-27T05:02:34.235Z,5.83
2022-11-27T05:03:34.163Z,5.80
2022-11-27T05:04:34.113Z,5.84
2022-11-27T05:05:34.065Z,5.88
2022-11-27T05:06:34.107Z,5.75
2022-11-27T05:07:34.006Z,5.83
2022-11-27T05:08:33.953Z,5.83
2022-11-27T05:09:33.888Z,5.90
2022-11-27T05:10:33.848Z,5.90
2022-11-27T05:11:33.805Z,5.84
2022-11-27T05:12:33.759Z,5.93
2022-11-27T05:13:33.714Z,5.87
2022-11-27T05:14:33.684Z,5.90
2022-11-27T05:15:33.619Z,5.95
2022-11-27T05:16:33.617Z,5.96
2022-11-27T05:17:33.538Z,5.90
2022-11-27T05:18:33.506Z,6.01
2022-11-27T05:19:33.449Z,5.90
2022-11-27T05:20:33.409Z,6.03
2022-11-27T05:21:33.359Z,5.98
2022-11-27T05:22:33.403Z,5.99
2022-11-27T05:23:33.271Z,5.96
2022-11-27T05:24:33.243Z,6.05
2022-11-27T05:25:33.192Z,6.11
2022-11-27T05:26:33.140Z,6.06
2022-11-27T05:27:33.095Z,6.05
2022-11-27T05:28:33.056Z,6.03
2022-11-27T05:29:33.015Z,5.95
2022-11-27T05:30:32.965Z,6.01
2022-11-27T05:31:32.961Z,6.03
2022-11-27T05:32:32.886Z,6.01
2022-11-27T05:33:32.830Z,5.99
2022-11-27T05:34:32.790Z,5.93
2022-11-27T05:35:32.743Z,6.05
2022-11-27T05:36:32.697Z,6.02
2022-11-27T05:37:32.671Z,5.98
2022-11-27T05:38:32.697Z,6.10
2022-11-27T05:39:32.569Z,5.92
2022-11-27T05:40:32.523Z,5.99
2022-11-27T05:41:32.479Z,6.02
2022-11-27T05:42:32.437Z,6.01
2022-11-27T05:43:32.398Z,6.08
2022-11-27T05:44:32.358Z,5.96
2022-11-27T05:45:32.305Z,5.99
2022-11-27T05:46:32.303Z,6.01
2022-11-27T05:47:32.215Z,6.10
2022-11-27T05:48:32.180Z,5.99
2022-11-27T05:49:32.156Z,6.02
2022-11-27T05:50:32.078Z,6.05
2022-11-27T05:51:32.040Z,6.02
2022-11-27T05:52:32.000Z,5.99
2022-11-27T05:53:31.950Z,6.02
2022-11-27T05:54:31.980Z,6.05
2022-11-27T05:55:31.875Z,6.01
2022-11-27T05:56:31.817Z,6.05
2022-11-27T05:57:31.773Z,6.02
2022-11-27T05:58:31.727Z,6.06
2022-11-27T05:59:31.685Z,6.06
2022-11-27T06:00:31.704Z,6.01
2022-11-27T06:01:32.337Z,6.08
2022-11-27T06:02:31.613Z,6.06
2022-11-27T06:03:31.626Z,5.99
2022-11-27T06:04:31.463Z,6.13
2022-11-27T06:05:31.421Z,6.11
2022-11-27T06:06:31.390Z,5.96
2022-11-27T06:07:31.366Z,6.01
2022-11-27T06:08:31.289Z,6.02
2022-11-27T06:09:31.247Z,6.05
2022-11-27T06:10:31.285Z,6.06
2022-11-27T06:11:31.175Z,6.06
2022-11-27T06:12:31.122Z,6.11
2022-11-27T06:13:31.072Z,6.06
2022-11-27T06:14:31.023Z,6.11
2022-11-27T06:15:30.980Z,6.10
2022-11-27T06:16:31.012Z,6.17
2022-11-27T06:17:30.891Z,6.16
2022-11-27T06:18:31.291Z,6.06
2022-11-27T06:19:30.806Z,6.14
2022-11-27T06:20:30.767Z,6.20
2022-11-27T06:21:30.716Z,6.16
2022-11-27T06:22:30.674Z,6.16
2022-11-27T06:23:30.631Z,6.13
2022-11-27T06:24:30.608Z,6.16
2022-11-27T06:25:30.542Z,6.14
2022-11-27T06:26:30.573Z,6.17
2022-11-27T06:27:30.456Z,6.16
2022-11-27T06:28:30.411Z,6.17
2022-11-27T06:29:30.383Z,6.19
2022-11-27T06:30:30.333Z,6.13
2022-11-27T06:31:30.300Z,6.11
2022-11-27T06:32:30.229Z,6.21
2022-11-27T06:33:30.211Z,6.30
2022-11-27T06:34:30.142Z,6.24
2022-11-27T06:35:30.109Z,6.27
2022-11-27T06:36:30.055Z,6.30
2022-11-27T06:37:30.017Z,6.21
2022-11-27T06:38:29.967Z,6.25
2022-11-27T06:39:29.939Z,6.27
2022-11-27T06:40:29.879Z,6.25
2022-11-27T06:41:29.842Z,6.28
2022-11-27T06:42:29.867Z,6.30
2022-11-27T06:43:29.752Z,6.27
2022-11-27T06:44:29.702Z,6.27
2022-11-27T06:45:29.703Z,6.24
2022-11-27T06:46:29.627Z,6.39
2022-11-27T06:47:29.575Z,6.28
2022-11-27T06:48:29.531Z,6.21
2022-11-27T06:49:29.490Z,6.27
2022-11-27T06:50:29.441Z,6.27
2022-11-27T06:51:29.413Z,6.39
2022-11-27T06:52:29.353Z,6.32
2022-11-27T06:53:29.326Z,6.24
2022-11-27T06:54:29.266Z,6.28
2022-11-27T06:55:29.224Z,6.33
2022-11-27T06:56:29.178Z,6.40
2022-11-27T06:57:29.154Z,6.42
2022-11-27T06:58:31.262Z,6.24
2022-11-27T06:59:29.051Z,6.36
2022-11-27T07:00:29.038Z,6.33
2022-11-27T07:01:29.036Z,6.35
2022-11-27T07:02:28.980Z,6.39
2022-11-27T07:03:28.885Z,6.39
2022-11-27T07:04:28.824Z,6.39
2022-11-27T07:05:28.789Z,6.33
2022-11-27T07:06:28.739Z,6.38
2022-11-27T07:07:28.768Z,6.38
2022-11-27T07:08:28.668Z,6.36
2022-11-27T07:09:28.608Z,6.38
2022-11-27T07:10:28.666Z,6.39
2022-11-27T07:11:28.514Z,6.39
2022-11-27T07:12:28.490Z,6.48
2022-11-27T07:13:28.433Z,6.51
2022-11-27T07:14:28.461Z,6.54
2022-11-27T07:15:28.346Z,6.48
2022-11-27T07:16:28.359Z,6.53
2022-11-27T07:17:28.259Z,6.53
2022-11-27T07:18:28.221Z,6.58
2022-11-27T07:19:28.170Z,6.55
2022-11-27T07:20:28.202Z,6.54
2022-11-27T07:21:28.079Z,6.58
2022-11-27T07:22:36.793Z,6.54
2022-11-27T07:23:28.010Z,6.63
2022-11-27T07:24:27.952Z,6.60
2022-11-27T07:25:27.906Z,6.68
2022-11-27T07:26:27.860Z,6.65
2022-11-27T07:27:27.816Z,6.73
2022-11-27T07:28:27.782Z,6.73
2022-11-27T07:29:27.729Z,6.64
2022-11-27T07:30:27.773Z,6.75
2022-11-27T07:31:27.741Z,6.72
2022-11-27T07:32:27.596Z,6.71
2022-11-27T07:33:27.561Z,6.75
2022-11-27T07:34:27.526Z,6.65
2022-11-27T07:35:27.468Z,6.79
2022-11-27T07:36:27.424Z,6.76
2022-11-27T07:37:27.390Z,6.72
2022-11-27T07:38:27.336Z,6.75
2022-11-27T07:39:53.995Z,6.81
2022-11-27T07:40:27.338Z,6.81
2022-11-27T07:41:33.542Z,6.72
2022-11-27T07:42:42.423Z,6.79
2022-11-27T07:43:27.116Z,6.82
2022-11-27T07:44:27.082Z,6.90
2022-11-27T07:45:27.052Z,6.94
2022-11-27T07:46:27.065Z,6.89
2022-11-27T07:47:26.939Z,6.79
2022-11-27T07:48:26.907Z,6.90
2022-11-27T07:49:26.860Z,6.93
2022-11-27T07:50:26.875Z,6.91
2022-11-27T07:51:26.770Z,6.91
2022-11-27T07:52:26.747Z,7.00
2022-11-27T07:53:26.681Z,7.11
2022-11-27T07:54:26.635Z,7.00
2022-11-27T07:55:26.622Z,7.07
2022-11-27T07:56:26.558Z,7.12
2022-11-27T07:57:26.513Z,7.09
2022-11-27T07:58:26.461Z,7.12
2022-11-27T07:59:26.431Z,7.21
2022-11-27T08:00:26.832Z,7.11
2022-11-27T08:01:26.406Z,7.18
2022-11-27T08:02:26.373Z,7.21
2022-11-27T08:03:26.253Z,7.19
2022-11-27T08:04:26.285Z,7.26
2022-11-27T08:05:26.177Z,7.34
2022-11-27T08:06:26.115Z,7.47
2022-11-27T08:07:26.118Z,7.41
2022-11-27T08:08:26.028Z,7.34
2022-11-27T08:09:26.015Z,7.41
2022-11-27T08:10:25.940Z,7.33
2022-11-27T08:11:25.911Z,7.41
2022-11-27T08:12:25.871Z,7.41
2022-11-27T08:13:25.819Z,7.45
2022-11-27T08:14:25.768Z,7.41
2022-11-27T08:15:25.732Z,7.54
2022-11-27T08:16:25.771Z,7.63
2022-11-27T08:17:25.642Z,7.51
2022-11-27T08:18:25.717Z,7.63
2022-11-27T08:19:25.554Z,7.58
2022-11-27T08:20:25.552Z,7.60
2022-11-27T08:21:25.471Z,7.58
2022-11-27T08:22:25.423Z,7.62
2022-11-27T08:23:25.384Z,7.60
2022-11-27T08:24:25.349Z,7.81
2022-11-27T08:25:25.296Z,7.70
2022-11-27T08:26:25.250Z,7.74
2022-11-27T08:27:25.209Z,7.77
2022-11-27T08:28:25.165Z,7.84
2022-11-27T08:29:26.921Z,7.88
2022-11-27T08:30:25.164Z,7.94
2022-11-27T08:31:25.099Z,8.02
2022-11-27T08:32:25.001Z,8.02
2022-11-27T08:33:24.955Z,8.00
2022-11-27T08:34:24.998Z,8.03
2022-11-27T08:35:24.870Z,8.09
2022-11-27T08:36:24.823Z,8.02
2022-11-27T08:37:24.780Z,8.17
2022-11-27T08:38:24.734Z,8.12
2022-11-27T08:39:24.732Z,8.07
2022-11-27T08:40:24.724Z,8.04
2022-11-27T08:41:24.612Z,8.10
2022-11-27T08:42:24.565Z,8.12
2022-11-27T08:43:24.526Z,8.03
2022-11-27T08:44:24.481Z,8.13
2022-11-27T08:45:24.516Z,8.14
2022-11-27T08:46:24.398Z,8.24
2022-11-27T08:47:24.360Z,8.18
2022-11-27T08:48:24.311Z,8.18
2022-11-27T08:49:24.280Z,8.12
2022-11-27T08:50:24.309Z,8.02
2022-11-27T08:51:24.198Z,8.14
2022-11-27T08:52:24.142Z,8.10
2022-11-27T08:53:24.101Z,8.21
2022-11-27T08:54:24.084Z,8.24
2022-11-27T08:55:24.054Z,8.20
2022-11-27T08:56:23.989Z,8.03
2022-11-27T08:57:23.976Z,8.22
2022-11-27T08:58:23.920Z,8.02
2022-11-27T08:59:23.849Z,8.12
2022-11-27T09:00:27.901Z,8.10
2022-11-27T09:01:23.852Z,8.03
2022-11-27T09:02:23.716Z,8.03
2022-11-27T09:03:23.688Z,8.07
2022-11-27T09:04:23.699Z,8.14
2022-11-27T09:05:23.591Z,8.14
2022-11-27T09:06:23.622Z,8.21
2022-11-27T09:07:23.558Z,8.14
2022-11-27T09:08:23.465Z,8.27
2022-11-27T09:09:23.435Z,8.21
2022-11-27T09:10:23.405Z,8.27
2022-11-27T09:11:23.347Z,8.14
2022-11-27T09:12:23.294Z,8.22
2022-11-27T09:13:23.254Z,8.14
2022-11-27T09:14:23.231Z,8.20
2022-11-27T09:15:23.180Z,8.34
2022-11-27T09:16:23.160Z,8.22
2022-11-27T09:17:23.085Z,8.18
2022-11-27T09:18:23.043Z,8.21
2022-11-27T09:19:23.000Z,8.32
2022-11-27T09:20:22.976Z,8.28
2022-11-27T09:21:22.924Z,8.29
2022-11-27T09:22:22.949Z,8.32
2022-11-27T09:23:22.832Z,8.39
2022-11-27T09:24:22.782Z,8.28
2022-11-27T09:25:22.752Z,8.40
2022-11-27T09:26:22.697Z,8.39
2022-11-27T09:27:22.674Z,8.43
2022-11-27T09:28:24.621Z,8.52
2022-11-27T09:29:22.572Z,8.52
2022-11-27T09:30:22.559Z,8.60
2022-11-27T09:31:22.722Z,8.46
2022-11-27T09:32:22.496Z,8.50
2022-11-27T09:33:22.405Z,8.64
2022-11-27T09:34:22.387Z,8.58
2022-11-27T09:35:22.343Z,8.63
2022-11-27T09:36:22.290Z,8.70
2022-11-27T09:37:22.242Z,8.68
2022-11-27T09:38:22.276Z,8.76
2022-11-27T09:39:22.154Z,8.86
2022-11-27T09:40:22.187Z,8.82
2022-11-27T09:41:22.070Z,8.75
2022-11-27T09:42:22.062Z,8.93
2022-11-27T09:43:21.981Z,8.98
2022-11-27T09:44:21.952Z,9.03
2022-11-27T09:45:21.915Z,9.12
2022-11-27T09:46:21.910Z,9.04
2022-11-27T09:47:21.831Z,9.03
2022-11-27T09:48:21.773Z,9.06
2022-11-27T09:49:21.729Z,9.03
2022-11-27T09:50:21.791Z,9.13
2022-11-27T09:51:21.649Z,9.15
2022-11-27T09:52:21.615Z,9.03
2022-11-27T09:53:21.572Z,9.31
2022-11-27T09:54:21.597Z,9.24
2022-11-27T09:55:21.485Z,9.23
2022-11-27T09:56:21.443Z,9.27
2022-11-27T09:57:21.397Z,9.23
2022-11-27T09:58:21.362Z,9.32
2022-11-27T09:59:21.329Z,9.24
2022-11-27T10:00:21.355Z,9.24
2022-11-27T10:01:21.272Z,9.19
2022-11-27T10:02:21.243Z,9.17
2022-11-27T10:03:21.199Z,9.23
2022-11-27T10:04:21.133Z,9.26
2022-11-27T10:05:21.548Z,9.22
2022-11-27T10:06:21.030Z,9.22
2022-11-27T10:07:21.049Z,9.22
2022-11-27T10:08:20.956Z,9.27
2022-11-27T10:09:20.900Z,9.23
2022-11-27T10:10:20.993Z,9.31
2022-11-27T10:11:20.823Z,9.20
2022-11-27T10:12:20.785Z,9.19
2022-11-27T10:13:20.742Z,9.22
2022-11-27T10:14:20.690Z,9.23
2022-11-27T10:15:20.650Z,9.15
2022-11-27T10:16:20.687Z,9.16
2022-11-27T10:17:20.580Z,9.20
2022-11-27T10:18:20.525Z,9.19
2022-11-27T10:19:20.479Z,9.23
2022-11-27T10:20:20.526Z,9.38
2022-11-27T10:21:20.397Z,9.32
2022-11-27T10:22:21.410Z,9.27
2022-11-27T10:23:20.417Z,9.37
2022-11-27T10:24:20.286Z,9.40
2022-11-27T10:25:20.246Z,9.35
2022-11-27T10:26:20.275Z,9.48
2022-11-27T10:27:20.188Z,9.45
2022-11-27T10:28:20.114Z,9.52
2022-11-27T10:29:20.082Z,9.52
2022-11-27T10:30:20.081Z,9.55
2022-11-27T10:31:20.022Z,9.45
2022-11-27T10:32:52.802Z,9.55
2022-11-27T10:33:19.898Z,9.58
2022-11-27T10:34:19.863Z,9.56
2022-11-27T10:35:19.822Z,9.62
2022-11-27T10:36:19.785Z,9.62
2022-11-27T10:37:19.728Z,9.59
2022-11-27T10:38:19.711Z,9.67
2022-11-27T10:39:19.660Z,9.65
2022-11-27T10:40:19.715Z,9.74
2022-11-27T10:41:48.869Z,9.67
2022-11-27T10:42:19.607Z,9.62
2022-11-27T10:43:19.485Z,9.65
2022-11-27T10:44:19.458Z,9.73
2022-11-27T10:45:19.399Z,9.65
2022-11-27T10:46:19.401Z,9.62
2022-11-27T10:47:19.318Z,9.67
2022-11-27T10:48:19.288Z,9.75
2022-11-27T10:49:19.234Z,9.65
2022-11-27T10:50:19.286Z,9.63
2022-11-27T10:51:19.177Z,9.65
2022-11-27T10:52:19.762Z,9.62
2022-11-27T10:53:19.069Z,9.73
2022-11-27T10:54:19.036Z,9.62
2022-11-27T10:55:18.994Z,9.65
2022-11-27T10:56:18.968Z,9.68
2022-11-27T10:57:18.912Z,9.63
2022-11-27T10:58:18.942Z,9.68
2022-11-27T10:59:18.823Z,9.60
2022-11-27T11:00:18.802Z,9.63
2022-11-27T11:01:18.800Z,9.55
2022-11-27T11:02:18.757Z,9.63
2022-11-27T11:03:18.662Z,9.58
2022-11-27T11:04:36.935Z,9.59
2022-11-27T11:06:21.315Z,9.55
2022-11-27T11:07:18.563Z,9.53
2022-11-27T11:08:18.469Z,9.63
2022-11-27T11:09:18.409Z,9.60
2022-11-27T11:10:18.441Z,9.55
2022-11-27T11:11:18.327Z,9.52
2022-11-27T11:12:18.280Z,9.62
2022-11-27T11:13:18.263Z,9.44
2022-11-27T11:14:18.289Z,9.42
2022-11-27T11:15:18.152Z,9.60
2022-11-27T11:16:23.328Z,9.65
2022-11-27T11:17:18.349Z,9.65
2022-11-27T11:18:18.029Z,9.65
2022-11-27T11:19:18.814Z,9.67
2022-11-27T11:20:18.002Z,9.53
2022-11-27T11:21:17.904Z,9.59
2022-11-27T11:22:17.866Z,9.60
2022-11-27T11:23:17.823Z,9.63
2022-11-27T11:24:17.783Z,9.63
2022-11-27T11:25:17.753Z,9.67
2022-11-27T11:26:17.700Z,9.67
2022-11-27T11:27:17.665Z,9.70
2022-11-27T11:28:17.625Z,9.62
2022-11-27T11:29:17.586Z,9.68
2022-11-27T11:30:17.676Z,9.67
2022-11-27T11:31:17.564Z,9.73
2022-11-27T11:32:17.551Z,9.68
2022-11-27T11:33:17.416Z,9.73
2022-11-27T11:34:17.367Z,9.68
2022-11-27T11:35:17.347Z,9.68
2022-11-27T11:36:17.285Z,9.65
2022-11-27T11:37:17.240Z,9.70
2022-11-27T11:38:17.207Z,9.63
2022-11-27T11:39:17.159Z,9.67
2022-11-27T11:40:17.123Z,9.68
2022-11-27T11:41:17.099Z,9.56
2022-11-27T11:42:17.035Z,9.48
2022-11-27T11:43:16.994Z,9.49
2022-11-27T11:44:16.958Z,9.45
2022-11-27T11:45:16.906Z,9.45
2022-11-27T11:46:17.028Z,9.45
2022-11-27T11:47:16.836Z,9.32
2022-11-27T11:48:16.789Z,9.35
2022-11-27T11:49:16.742Z,9.40
2022-11-27T11:50:16.776Z,9.23
2022-11-27T11:51:16.658Z,9.31
2022-11-27T11:52:16.630Z,9.34
2022-11-27T11:53:16.573Z,9.32
2022-11-27T11:54:16.540Z,9.32
2022-11-27T11:55:16.512Z,9.38
2022-11-27T11:56:16.454Z,9.38
2022-11-27T11:57:16.406Z,9.34
2022-11-27T11:58:16.399Z,9.38
2022-11-27T11:59:17.281Z,9.52
2022-11-27T12:00:16.283Z,9.52
2022-11-27T12:01:26.808Z,9.55
2022-11-27T12:02:16.332Z,9.58
2022-11-27T12:03:16.160Z,9.63
2022-11-27T12:04:16.526Z,9.63
2022-11-27T12:05:16.070Z,9.68
2022-11-27T12:06:16.031Z,9.78
2022-11-27T12:07:16.022Z,9.65
2022-11-27T12:08:15.948Z,9.77
2022-11-27T12:09:16.879Z,9.80
2022-11-27T12:10:15.872Z,9.81
2022-11-27T12:11:15.820Z,9.71
2022-11-27T12:12:15.785Z,9.85
2022-11-27T12:13:15.750Z,9.86
2022-11-27T12:14:15.700Z,9.91
2022-11-27T12:15:15.671Z,10.04
2022-11-27T12:16:15.696Z,9.95
2022-11-27T12:17:15.592Z,9.99
2022-11-27T12:18:15.605Z,9.95
2022-11-27T12:19:15.488Z,9.88
2022-11-27T12:20:15.455Z,9.95
2022-11-27T12:21:15.419Z,10.06
2022-11-27T12:22:15.369Z,10.06
2022-11-27T12:23:15.322Z,9.98
2022-11-27T12:24:15.287Z,10.06
2022-11-27T12:25:15.248Z,10.06
2022-11-27T12:26:15.214Z,10.02
2022-11-27T12:27:15.155Z,9.98
2022-11-27T12:28:15.118Z,10.02
2022-11-27T12:29:15.074Z,9.92
2022-11-27T12:30:15.036Z,10.06
2022-11-27T12:31:15.073Z,10.11
2022-11-27T12:32:14.961Z,10.04
2022-11-27T12:33:14.909Z,10.09
2022-11-27T12:34:14.949Z,10.06
2022-11-27T12:35:14.845Z,10.04
2022-11-27T12:36:14.788Z,10.06
2022-11-27T12:37:14.741Z,10.16
2022-11-27T12:38:14.718Z,10.16
2022-11-27T12:39:14.658Z,10.16
2022-11-27T12:40:14.630Z,10.28
2022-11-27T12:41:14.578Z,10.16
2022-11-27T12:42:19.028Z,10.20
2022-11-27T12:43:14.513Z,10.24
2022-11-27T12:44:14.490Z,10.29
2022-11-27T12:45:14.411Z,10.29
2022-11-27T12:46:14.428Z,10.20
2022-11-27T12:47:14.329Z,10.26
2022-11-27T12:48:14.290Z,10.34
2022-11-27T12:49:14.246Z,10.42
2022-11-27T12:50:14.299Z,10.36
2022-11-27T12:51:14.164Z,10.31
2022-11-27T12:52:14.135Z,10.42
2022-11-27T12:53:14.082Z,10.44
2022-11-27T12:54:14.044Z,10.39
2022-11-27T12:55:14.009Z,10.43
2022-11-27T12:56:13.991Z,10.36
2022-11-27T12:57:13.916Z,10.43
2022-11-27T12:58:13.879Z,10.43
2022-11-27T12:59:13.840Z,10.36
2022-11-27T13:00:13.811Z,10.47
2022-11-27T13:01:13.790Z,10.42
2022-11-27T13:02:13.771Z,10.39
2022-11-27T13:03:13.669Z,10.47
2022-11-27T13:04:13.632Z,10.51
2022-11-27T13:05:13.591Z,10.57
2022-11-27T13:06:13.627Z,10.44
2022-11-27T13:07:13.581Z,10.58
2022-11-27T13:08:13.474Z,10.51
2022-11-27T13:09:13.426Z,10.49
2022-11-27T13:10:13.443Z,10.35
2022-11-27T13:11:13.353Z,10.46
2022-11-27T13:12:13.303Z,10.38
2022-11-27T13:13:13.257Z,10.38
2022-11-27T13:14:13.219Z,10.51
2022-11-27T13:15:13.175Z,10.46
2022-11-27T13:16:13.186Z,10.47
2022-11-27T13:17:13.104Z,10.54